createdAt,value
2022-09-28T05:32:05.777Z,99.99
2022-09-28T05:33:06.704Z,99.99
2022-09-28T05:34:06.683Z,99.99
2022-09-28T05:35:06.675Z,99.99
2022-09-28T05:36:06.660Z,99.99
2022-09-28T05:37:06.672Z,99.99
2022-09-28T05:38:06.642Z,99.99
2022-09-28T05:39:06.641Z,99.99
2022-09-28T05:40:06.621Z,99.99
2022-09-28T05:41:07.096Z,99.99
2022-09-28T05:42:06.649Z,99.99
2022-09-28T05:43:06.657Z,99.99
2022-09-28T05:44:06.579Z,99.99
2022-09-28T05:45:06.614Z,99.99
2022-09-28T05:46:06.691Z,99.99
2022-09-28T05:47:06.571Z,99.99
2022-09-28T05:48:06.540Z,99.99
2022-09-28T05:49:06.527Z,99.99
2022-09-28T05:50:06.513Z,99.99
2022-09-28T05:51:06.506Z,99.99
2022-09-28T05:52:06.497Z,99.99
2022-09-28T05:53:06.505Z,99.99
2022-09-28T05:54:06.574Z,99.99
2022-09-28T05:55:06.475Z,99.99
2022-09-28T05:56:06.479Z,99.99
2022-09-28T05:57:06.448Z,99.99
2022-09-28T05:58:06.432Z,99.99
2022-09-28T05:59:06.437Z,99.99
2022-09-28T06:00:06.420Z,99.99
2022-09-28T06:01:06.505Z,99.99
2022-09-28T06:02:06.432Z,99.99
2022-09-28T06:03:08.885Z,99.99
2022-09-28T06:04:06.390Z,99.99
2022-09-28T06:05:06.361Z,99.99
2022-09-28T06:06:06.346Z,99.99
2022-09-28T06:07:06.337Z,99.99
2022-09-28T06:08:06.325Z,99.99
2022-09-28T06:09:06.329Z,99.99
2022-09-28T06:10:06.304Z,99.99
2022-09-28T06:11:06.320Z,99.99
2022-09-28T06:12:06.281Z,99.99
2022-09-28T06:13:06.275Z,99.99
2022-09-28T06:14:06.283Z,99.99
2022-09-28T06:15:06.250Z,99.99
2022-09-28T06:16:06.238Z,99.99
2022-09-28T06:17:06.297Z,99.99
2022-09-28T06:18:06.217Z,99.99
2022-09-28T06:19:06.212Z,99.99
2022-09-28T06:20:06.218Z,99.99
2022-09-28T06:21:06.192Z,99.99
2022-09-28T06:22:06.186Z,99.99
2022-09-28T06:23:06.171Z,99.99
2022-09-28T06:24:06.166Z,99.99
2022-09-28T06:25:06.151Z,99.99
2022-09-28T06:26:06.167Z,99.99
2022-09-28T06:27:06.159Z,99.99
2022-09-28T06:28:06.112Z,99.99
2022-09-28T06:29:06.107Z,99.99
2022-09-28T06:30:06.090Z,99.99
2022-09-28T06:31:06.199Z,99.99
2022-09-28T06:32:06.084Z,99.99
2022-09-28T06:33:06.065Z,99.99
2022-09-28T06:34:06.053Z,99.99
2022-09-28T06:35:06.036Z,99.99
2022-09-28T06:36:06.030Z,99.99
2022-09-28T06:37:06.022Z,99.99
2022-09-28T06:38:06.053Z,99.99
2022-09-28T06:39:05.999Z,99.99
2022-09-28T06:40:06.005Z,99.99
2022-09-28T06:41:05.984Z,99.99
2022-09-28T06:42:05.989Z,99.99
2022-09-28T06:43:05.950Z,99.99
2022-09-28T06:44:05.945Z,99.99
2022-09-28T06:45:06.062Z,99.99
2022-09-28T06:46:05.966Z,99.99
2022-09-28T06:47:05.910Z,99.99
2022-09-28T06:48:05.892Z,99.99
2022-09-28T06:49:05.894Z,99.99
2022-09-28T06:50:05.881Z,99.52
2022-09-28T06:51:05.868Z,99.32
2022-09-28T06:52:05.875Z,99.99
2022-09-28T06:53:05.871Z,99.99
2022-09-28T06:54:05.838Z,99.99
2022-09-28T06:55:05.821Z,99.99
2022-09-28T06:56:05.821Z,99.99
2022-09-28T06:57:05.801Z,99.99
2022-09-28T06:58:05.792Z,99.99
2022-09-28T06:59:05.782Z,99.99
2022-09-28T07:00:05.766Z,99.73
2022-09-28T07:01:05.843Z,98.80
2022-09-28T07:02:05.783Z,98.19
2022-09-28T07:03:05.753Z,98.08
2022-09-28T07:04:05.722Z,98.50
2022-09-28T07:05:05.726Z,98.60
2022-09-28T07:06:05.721Z,98.70
2022-09-28T07:07:05.698Z,98.39
2022-09-28T07:08:05.678Z,98.70
2022-09-28T07:09:22.245Z,99.01
2022-09-28T07:10:05.677Z,99.32
2022-09-28T07:11:05.647Z,98.80
2022-09-28T07:12:05.634Z,99.83
2022-09-28T07:13:06.473Z,99.52
2022-09-28T07:14:05.614Z,99.52
2022-09-28T07:15:05.617Z,99.52
2022-09-28T07:16:05.594Z,99.63
2022-09-28T07:17:13.566Z,99.93
2022-09-28T07:18:05.623Z,99.32
2022-09-28T07:19:05.570Z,98.91
2022-09-28T07:20:16.725Z,98.91
2022-09-28T07:21:05.578Z,99.11
2022-09-28T07:22:05.820Z,98.91
2022-09-28T07:23:17.056Z,99.99
2022-09-28T07:24:05.548Z,99.73
2022-09-28T07:25:05.508Z,99.73
2022-09-28T07:26:07.997Z,99.32
2022-09-28T07:27:05.476Z,99.93
2022-09-28T07:28:05.461Z,99.63
2022-09-28T07:29:05.472Z,99.83
2022-09-28T07:30:05.456Z,99.32
2022-09-28T07:31:05.460Z,99.01
2022-09-28T07:32:05.422Z,99.42
2022-09-28T07:33:05.430Z,99.99
2022-09-28T07:34:05.396Z,99.07
2022-09-28T07:35:05.404Z,97.88
2022-09-28T07:36:05.376Z,98.39
2022-09-28T07:37:05.372Z,98.66
2022-09-28T07:38:05.369Z,98.45
2022-09-28T07:39:05.347Z,97.83
2022-09-28T07:40:05.350Z,97.63
2022-09-28T07:41:05.380Z,96.50
2022-09-28T07:42:05.311Z,97.12
2022-09-28T07:43:05.303Z,97.73
2022-09-28T07:44:05.294Z,97.94
2022-09-28T07:45:05.295Z,97.53
2022-09-28T07:46:05.321Z,97.22
2022-09-28T07:47:05.264Z,98.25
2022-09-28T07:48:05.310Z,99.99
2022-09-28T07:49:08.328Z,99.54
2022-09-28T07:50:05.233Z,98.51
2022-09-28T07:51:05.243Z,98.20
2022-09-28T07:52:05.210Z,97.28
2022-09-28T07:53:05.198Z,96.25
2022-09-28T07:54:05.185Z,96.87
2022-09-28T07:55:07.226Z,96.56
2022-09-28T07:56:05.165Z,96.35
2022-09-28T07:57:05.169Z,94.51
2022-09-28T07:58:05.147Z,93.93
2022-09-28T07:59:05.143Z,94.85
2022-09-28T08:00:05.126Z,95.06
2022-09-28T08:01:05.153Z,95.37
2022-09-28T08:02:05.197Z,95.89
2022-09-28T08:03:05.100Z,95.27
2022-09-28T08:04:05.099Z,95.06
2022-09-28T08:05:05.079Z,95.27
2022-09-28T08:06:05.053Z,96.40
2022-09-28T08:07:05.056Z,95.06
2022-09-28T08:08:05.037Z,93.52
2022-09-28T08:09:05.054Z,93.42
2022-09-28T08:10:05.012Z,94.65
2022-09-28T08:11:05.045Z,94.24
2022-09-28T08:12:05.004Z,94.34
2022-09-28T08:13:06.545Z,93.93
2022-09-28T08:14:04.993Z,93.83
2022-09-28T08:15:04.993Z,94.96
2022-09-28T08:16:05.120Z,95.37
2022-09-28T08:17:04.940Z,94.61
2022-09-28T08:18:04.933Z,93.27
2022-09-28T08:19:04.937Z,93.64
2022-09-28T08:20:04.949Z,94.36
2022-09-28T08:21:04.894Z,93.85
2022-09-28T08:22:04.894Z,93.19
2022-09-28T08:23:04.897Z,93.90
2022-09-28T08:24:04.880Z,92.06
2022-09-28T08:25:04.874Z,91.14
2022-09-28T08:26:04.851Z,90.42
2022-09-28T08:27:04.843Z,92.16
2022-09-28T08:28:04.835Z,92.36
2022-09-28T08:29:04.826Z,91.86
2022-09-28T08:30:04.802Z,91.75
2022-09-28T08:31:04.827Z,91.08
2022-09-28T08:32:04.811Z,92.51
2022-09-28T08:33:04.767Z,91.80
2022-09-28T08:34:04.814Z,92.00
2022-09-28T08:35:04.757Z,89.75
2022-09-28T08:36:04.742Z,89.23
2022-09-28T08:37:04.727Z,90.30
2022-09-28T08:38:04.713Z,90.61
2022-09-28T08:39:04.711Z,93.68
2022-09-28T08:40:04.706Z,91.84
2022-09-28T08:41:04.804Z,89.07
2022-09-28T08:42:04.667Z,90.81
2022-09-28T08:43:04.673Z,90.71
2022-09-28T08:44:04.650Z,90.81
2022-09-28T08:45:04.703Z,90.30
2022-09-28T08:46:04.699Z,92.14
2022-09-28T08:47:04.621Z,92.86
2022-09-28T08:48:04.627Z,93.17
2022-09-28T08:49:24.277Z,92.66
2022-09-28T08:50:04.591Z,90.56
2022-09-28T08:51:04.613Z,91.28
2022-09-28T08:52:04.562Z,91.14
2022-09-28T08:53:04.574Z,90.83
2022-09-28T08:54:06.897Z,90.83
2022-09-28T08:55:04.544Z,89.60
2022-09-28T08:56:04.534Z,89.15
2022-09-28T08:57:04.510Z,89.87
2022-09-28T08:58:04.525Z,89.87
2022-09-28T08:59:04.489Z,88.43
2022-09-28T09:00:08.178Z,89.66
2022-09-28T09:01:04.542Z,89.56
2022-09-28T09:02:04.604Z,89.36
2022-09-28T09:03:04.465Z,90.44
2022-09-28T09:04:04.446Z,86.85
2022-09-28T09:05:04.438Z,90.64
2022-09-28T09:06:04.438Z,85.63
2022-09-28T09:07:04.436Z,87.37
2022-09-28T09:08:04.412Z,87.12
2022-09-28T09:09:04.390Z,86.65
2022-09-28T09:10:04.395Z,87.57
2022-09-28T09:11:04.367Z,89.11
2022-09-28T09:12:04.361Z,88.76
2022-09-28T09:13:04.353Z,86.30
2022-09-28T09:14:04.339Z,87.84
2022-09-28T09:15:03.307Z,86.96
2022-09-28T09:16:04.311Z,87.26
2022-09-28T09:17:04.366Z,88.80
2022-09-28T09:18:04.278Z,85.69
2022-09-28T09:19:04.269Z,84.97
2022-09-28T09:20:04.260Z,85.22
2022-09-28T09:21:04.251Z,85.11
2022-09-28T09:22:04.299Z,83.13
2022-09-28T09:23:04.230Z,85.96
2022-09-28T09:24:04.213Z,85.61
2022-09-28T09:25:04.217Z,84.14
2022-09-28T09:26:04.194Z,80.62
2022-09-28T09:27:04.186Z,79.19
2022-09-28T09:28:04.170Z,79.77
2022-09-28T09:29:04.183Z,81.71
2022-09-28T09:30:04.170Z,83.85
2022-09-28T09:31:04.194Z,80.85
2022-09-28T09:32:04.135Z,79.52
2022-09-28T09:33:04.132Z,76.97
2022-09-28T09:34:04.110Z,78.50
2022-09-28T09:35:04.107Z,77.96
2022-09-28T09:36:04.106Z,79.93
2022-09-28T09:37:04.078Z,77.64
2022-09-28T09:38:04.075Z,78.22
2022-09-28T09:39:04.066Z,75.20
2022-09-28T09:40:04.053Z,72.89
2022-09-28T09:41:04.167Z,77.41
2022-09-28T09:42:04.030Z,77.41
2022-09-28T09:43:04.010Z,77.96
2022-09-28T09:44:04.004Z,77.89
2022-09-28T09:45:04.026Z,78.75
2022-09-28T09:46:04.037Z,78.03
2022-09-28T09:47:03.972Z,78.78
2022-09-28T09:48:03.965Z,77.39
2022-09-28T09:49:03.977Z,78.72
2022-09-28T09:50:06.933Z,78.34
2022-09-28T09:51:03.930Z,79.41
2022-09-28T09:52:03.918Z,82.98
2022-09-28T09:53:03.902Z,81.24
2022-09-28T09:54:03.900Z,82.98
2022-09-28T09:55:03.901Z,80.49
2022-09-28T09:56:03.869Z,78.31
2022-09-28T09:57:03.851Z,78.54
2022-09-28T09:58:03.862Z,74.83
2022-09-28T09:59:03.842Z,74.22
2022-09-28T10:00:03.870Z,76.12
2022-09-28T10:01:03.872Z,75.20
2022-09-28T10:02:03.851Z,75.71
2022-09-28T10:03:03.806Z,73.77
2022-09-28T10:04:03.782Z,73.16
2022-09-28T10:05:03.765Z,74.73
2022-09-28T10:06:03.764Z,73.81
2022-09-28T10:07:03.757Z,73.33
2022-09-28T10:08:03.762Z,76.19
2022-09-28T10:09:03.727Z,72.82
2022-09-28T10:10:03.723Z,75.78
2022-09-28T10:11:03.702Z,72.04
2022-09-28T10:12:03.715Z,74.32
2022-09-28T10:13:03.680Z,73.64
2022-09-28T10:14:03.686Z,76.09
2022-09-28T10:15:03.664Z,77.22
2022-09-28T10:16:03.652Z,75.82
2022-09-28T10:17:03.825Z,77.26
2022-09-28T10:18:03.638Z,78.28
2022-09-28T10:19:03.621Z,75.55
2022-09-28T10:20:03.621Z,75.45
2022-09-28T10:21:03.615Z,77.19
2022-09-28T10:22:03.598Z,77.91
2022-09-28T10:23:03.604Z,78.69
2022-09-28T10:24:03.559Z,76.75
2022-09-28T10:25:03.549Z,75.01
2022-09-28T10:26:03.568Z,75.10
2022-09-28T10:27:03.527Z,74.63
2022-09-28T10:28:03.521Z,74.43
2022-09-28T10:29:03.534Z,75.62
2022-09-28T10:30:03.500Z,75.72
2022-09-28T10:31:03.577Z,75.42
2022-09-28T10:32:03.474Z,74.46
2022-09-28T10:33:03.471Z,75.14
2022-09-28T10:34:03.453Z,73.16
2022-09-28T10:35:03.467Z,73.06
2022-09-28T10:36:03.441Z,71.56
2022-09-28T10:37:03.415Z,67.80
2022-09-28T10:38:03.425Z,68.95
2022-09-28T10:39:03.394Z,67.63
2022-09-28T10:40:03.385Z,68.79
2022-09-28T10:41:03.484Z,67.19
2022-09-28T10:42:03.366Z,64.29
2022-09-28T10:43:03.353Z,64.49
2022-09-28T10:44:03.360Z,61.47
2022-09-28T10:45:03.355Z,60.59
2022-09-28T10:46:03.402Z,62.08
2022-09-28T10:47:03.322Z,60.59
2022-09-28T10:48:03.296Z,62.24
2022-09-28T10:49:03.284Z,61.36
2022-09-28T10:50:03.290Z,64.03
2022-09-28T10:51:03.264Z,64.37
2022-09-28T10:52:03.260Z,65.56
2022-09-28T10:53:03.240Z,62.88
2022-09-28T10:54:03.232Z,62.18
2022-09-28T10:55:03.242Z,60.27
2022-09-28T10:56:03.237Z,57.17
2022-09-28T10:57:03.201Z,55.22
2022-09-28T10:58:03.200Z,56.28
2022-09-28T10:59:03.183Z,52.99
2022-09-28T11:00:03.177Z,54.96
2022-09-28T11:01:03.229Z,51.61
2022-09-28T11:02:03.243Z,52.79
2022-09-28T11:03:03.131Z,52.16
2022-09-28T11:04:03.128Z,51.13
2022-09-28T11:05:03.125Z,48.81
2022-09-28T11:06:03.105Z,48.08
2022-09-28T11:07:03.093Z,45.56
2022-09-28T11:08:03.080Z,46.89
2022-09-28T11:09:03.077Z,47.08
2022-09-28T11:10:03.084Z,51.48
2022-09-28T11:11:03.047Z,51.35
2022-09-28T11:12:03.041Z,51.80
2022-09-28T11:13:03.028Z,53.85
2022-09-28T11:14:03.015Z,53.30
2022-09-28T11:15:03.031Z,52.56
2022-09-28T11:16:03.007Z,52.79
2022-09-28T11:17:03.016Z,53.58
2022-09-28T11:18:02.970Z,50.43
2022-09-28T11:19:02.993Z,49.55
2022-09-28T11:20:02.949Z,53.83
2022-09-28T11:21:02.943Z,52.71
2022-09-28T11:22:02.928Z,52.00
2022-09-28T11:23:02.920Z,51.25
2022-09-28T11:24:02.913Z,49.48
2022-09-28T11:25:02.899Z,47.11
2022-09-28T11:26:02.919Z,46.78
2022-09-28T11:27:02.884Z,47.49
2022-09-28T11:28:02.859Z,46.96
2022-09-28T11:29:02.845Z,47.52
2022-09-28T11:30:02.838Z,43.08
2022-09-28T11:31:02.907Z,44.79
2022-09-28T11:32:02.812Z,44.37
2022-09-28T11:33:02.801Z,45.76
2022-09-28T11:34:02.800Z,43.73
2022-09-28T11:35:02.778Z,42.10
2022-09-28T11:36:02.771Z,42.18
2022-09-28T11:37:02.809Z,41.55
2022-09-28T11:38:02.754Z,41.01
2022-09-28T11:39:02.765Z,39.28
2022-09-28T11:40:02.731Z,39.98
2022-09-28T11:41:02.768Z,39.38
2022-09-28T11:42:02.730Z,39.64
2022-09-28T11:43:02.729Z,42.52
2022-09-28T11:44:02.687Z,44.55
2022-09-28T11:45:02.678Z,43.08
2022-09-28T11:46:02.770Z,43.02
2022-09-28T11:47:02.669Z,43.85
2022-09-28T11:48:02.641Z,45.16
2022-09-28T11:49:02.643Z,44.62
2022-09-28T11:50:02.622Z,44.75
2022-09-28T11:51:02.618Z,41.99
2022-09-28T11:52:02.617Z,42.98
2022-09-28T11:53:02.597Z,43.65
2022-09-28T11:54:02.608Z,44.87
2022-09-28T11:55:02.560Z,43.82
2022-09-28T11:56:07.938Z,41.79
2022-09-28T11:57:02.598Z,40.84
2022-09-28T11:58:02.545Z,40.95
2022-09-28T11:59:02.538Z,39.60
2022-09-28T12:00:02.513Z,37.57
2022-09-28T12:01:02.503Z,39.08
2022-09-28T12:02:02.580Z,39.16
2022-09-28T12:03:02.634Z,38.02
2022-09-28T12:04:02.494Z,38.51
2022-09-28T12:05:02.467Z,37.68
2022-09-28T12:06:02.448Z,37.15
2022-09-28T12:07:02.433Z,36.05
2022-09-28T12:08:02.433Z,35.93
2022-09-28T12:09:02.450Z,38.49
2022-09-28T12:10:02.425Z,35.58
2022-09-28T12:11:02.389Z,38.10
2022-09-28T12:12:02.390Z,36.65
2022-09-28T12:13:02.369Z,40.42
2022-09-28T12:14:02.398Z,39.84
2022-09-28T12:15:02.350Z,41.11
2022-09-28T12:16:45.159Z,42.35
2022-09-28T12:17:07.946Z,42.68
2022-09-28T12:18:02.417Z,41.08
2022-09-28T12:19:02.316Z,42.94
2022-09-28T12:20:02.305Z,43.26
2022-09-28T12:21:05.099Z,43.89
2022-09-28T12:22:02.304Z,44.92
2022-09-28T12:23:02.263Z,45.27
2022-09-28T12:24:02.252Z,47.19
2022-09-28T12:25:02.307Z,47.31
2022-09-28T12:26:02.235Z,47.58
2022-09-28T12:27:02.215Z,46.99
2022-09-28T12:28:02.233Z,48.61
2022-09-28T12:29:02.195Z,47.51
2022-09-28T12:30:02.241Z,45.93
2022-09-28T12:31:02.240Z,43.46
2022-09-28T12:32:02.180Z,42.94
2022-09-28T12:33:02.177Z,41.02
2022-09-28T12:34:02.139Z,41.19
2022-09-28T12:35:02.130Z,41.45
2022-09-28T12:36:02.120Z,38.93
2022-09-28T12:37:02.111Z,38.71
2022-09-28T12:38:02.153Z,39.22
2022-09-28T12:39:18.129Z,36.80
2022-09-28T12:40:02.337Z,38.25
2022-09-28T12:41:02.149Z,38.79
2022-09-28T12:42:02.053Z,40.72
2022-09-28T12:43:02.039Z,38.99
2022-09-28T12:44:02.055Z,38.69
2022-09-28T12:45:02.017Z,39.68
2022-09-28T12:46:17.217Z,39.84
2022-09-28T12:47:02.090Z,39.64
2022-09-28T12:48:01.987Z,41.27
2022-09-28T12:49:51.539Z,42.41
2022-09-28T12:51:01.414Z,42.54
2022-09-28T12:52:01.947Z,42.27
2022-09-28T12:53:03.140Z,43.18
2022-09-28T12:54:01.921Z,42.84
2022-09-28T12:55:02.055Z,44.01
2022-09-28T12:56:01.907Z,40.44
2022-09-28T12:57:01.907Z,41.06
2022-09-28T12:58:01.877Z,41.25
2022-09-28T12:59:01.870Z,40.92
2022-09-28T13:00:02.099Z,40.02
2022-09-28T13:01:01.851Z,40.73
2022-09-28T13:02:01.848Z,39.76
2022-09-28T13:03:01.877Z,40.58
2022-09-28T13:04:01.835Z,40.75
2022-09-28T13:05:01.852Z,42.30
2022-09-28T13:06:01.815Z,40.69
2022-09-28T13:07:01.872Z,42.24
2022-09-28T13:08:01.774Z,43.48
2022-09-28T13:09:01.805Z,43.93
2022-09-28T13:10:01.894Z,44.46
2022-09-28T13:11:05.553Z,46.09
2022-09-28T13:12:01.745Z,46.52
2022-09-28T13:13:01.750Z,46.54
2022-09-28T13:14:01.707Z,45.83
2022-09-28T13:15:01.691Z,45.00
2022-09-28T13:16:01.761Z,45.54
2022-09-28T13:17:01.681Z,41.73
2022-09-28T13:18:01.685Z,41.61
2022-09-28T13:19:01.657Z,41.03
2022-09-28T13:20:01.642Z,40.89
2022-09-28T13:21:01.627Z,39.30
2022-09-28T13:22:01.653Z,39.72
2022-09-28T13:23:01.604Z,39.18
2022-09-28T13:24:20.682Z,38.34
2022-09-28T13:25:01.593Z,36.60
2022-09-28T13:26:01.574Z,37.77
2022-09-28T13:27:01.562Z,36.07
2022-09-28T13:28:01.558Z,35.64
2022-09-28T13:29:01.545Z,33.86
2022-09-28T13:30:01.556Z,35.10
2022-09-28T13:31:01.613Z,34.58
2022-09-28T13:32:01.507Z,33.67
2022-09-28T13:33:01.527Z,33.98
2022-09-28T13:34:01.512Z,33.67
2022-09-28T13:35:01.469Z,33.06
2022-09-28T13:36:01.464Z,32.56
2022-09-28T13:37:01.451Z,32.34
2022-09-28T13:38:01.443Z,33.23
2022-09-28T13:39:01.454Z,33.73
2022-09-28T13:40:01.453Z,31.01
2022-09-28T13:41:01.460Z,32.91
2022-09-28T13:42:01.400Z,32.41
2022-09-28T13:43:01.403Z,32.40
2022-09-28T13:44:01.385Z,33.36
2022-09-28T13:45:01.423Z,35.39
2022-09-28T13:46:01.455Z,34.28
2022-09-28T13:47:01.430Z,34.80
2022-09-28T13:48:01.356Z,35.53
2022-09-28T13:49:01.329Z,35.70
2022-09-28T13:50:01.314Z,37.85
2022-09-28T13:51:01.336Z,38.59
2022-09-28T13:52:01.293Z,39.70
2022-09-28T13:53:01.281Z,39.61
2022-09-28T13:54:01.282Z,39.95
2022-09-28T13:55:01.261Z,40.68
2022-09-28T13:56:01.252Z,42.03
2022-09-28T13:57:01.239Z,41.02
2022-09-28T13:58:01.246Z,42.23
2022-09-28T13:59:01.241Z,43.55
2022-09-28T14:00:01.249Z,41.56
2022-09-28T14:01:01.199Z,39.23
2022-09-28T14:02:06.361Z,36.75
2022-09-28T14:03:01.227Z,35.61
2022-09-28T14:04:01.161Z,35.60
2022-09-28T14:05:01.156Z,35.95
2022-09-28T14:06:01.143Z,36.85
2022-09-28T14:07:01.138Z,37.05
2022-09-28T14:08:01.144Z,35.63
2022-09-28T14:09:01.124Z,34.56
2022-09-28T14:10:01.099Z,32.82
2022-09-28T14:11:01.108Z,32.40
2022-09-28T14:12:01.110Z,33.00
2022-09-28T14:13:04.119Z,33.68
2022-09-28T14:14:01.092Z,31.88
2022-09-28T14:15:01.064Z,32.88
2022-09-28T14:16:01.184Z,33.06
2022-09-28T14:17:01.029Z,31.37
2022-09-28T14:18:01.023Z,32.85
2022-09-28T14:19:01.003Z,31.55
2022-09-28T14:20:00.995Z,31.37
2022-09-28T14:21:00.980Z,32.05
2022-09-28T14:22:00.997Z,32.88
2022-09-28T14:23:00.978Z,31.68
2022-09-28T14:24:00.955Z,32.08
2022-09-28T14:25:00.937Z,31.87
2022-09-28T14:26:00.964Z,31.63
2022-09-28T14:27:00.919Z,31.22
2022-09-28T14:28:00.973Z,30.80
2022-09-28T14:29:00.924Z,30.71
2022-09-28T14:30:00.889Z,32.15
2022-09-28T14:31:00.907Z,33.01
2022-09-28T14:32:00.864Z,35.16
2022-09-28T14:33:00.876Z,35.83
2022-09-28T14:34:00.866Z,38.29
2022-09-28T14:35:00.837Z,38.64
2022-09-28T14:36:00.820Z,39.59
2022-09-28T14:37:00.819Z,39.43
2022-09-28T14:38:00.800Z,41.08
2022-09-28T14:39:00.795Z,42.94
2022-09-28T14:40:00.804Z,43.57
2022-09-28T14:41:00.836Z,43.99
2022-09-28T14:42:00.772Z,45.23
2022-09-28T14:43:00.748Z,46.46
2022-09-28T14:44:00.740Z,46.04
2022-09-28T14:45:05.298Z,45.75
2022-09-28T14:46:00.804Z,46.89
2022-09-28T14:47:00.702Z,46.99
2022-09-28T14:48:00.689Z,47.31
2022-09-28T14:49:00.698Z,47.44
2022-09-28T14:50:00.667Z,48.35
2022-09-28T14:51:00.663Z,49.47
2022-09-28T14:52:00.646Z,49.37
2022-09-28T14:53:00.660Z,47.00
2022-09-28T14:54:00.634Z,41.17
2022-09-28T14:55:00.632Z,37.12
2022-09-28T14:56:00.657Z,36.57
2022-09-28T14:57:00.596Z,33.78
2022-09-28T14:58:00.608Z,32.23
2022-09-28T14:59:00.573Z,31.82
2022-09-28T15:00:00.559Z,31.72
2022-09-28T15:01:00.551Z,32.14
2022-09-28T15:02:00.576Z,32.05
2022-09-28T15:03:00.528Z,33.03
2022-09-28T15:04:00.580Z,32.12
2022-09-28T15:05:00.641Z,32.43
2022-09-28T15:06:00.496Z,31.93
2022-09-28T15:07:00.502Z,31.55
2022-09-28T15:08:00.497Z,33.73
2022-09-28T15:09:00.475Z,34.38
2022-09-28T15:10:00.463Z,35.71
2022-09-28T15:11:00.458Z,37.04
2022-09-28T15:12:00.442Z,37.59
2022-09-28T15:13:00.435Z,38.43
2022-09-28T15:14:00.412Z,38.97
2022-09-28T15:15:00.406Z,41.51
2022-09-28T15:16:00.413Z,40.42
2022-09-28T15:17:00.401Z,40.64
2022-09-28T15:18:00.363Z,41.16
2022-09-28T15:19:00.356Z,43.28
2022-09-28T15:20:00.367Z,43.51
2022-09-28T15:21:00.354Z,41.39
2022-09-28T15:22:00.321Z,40.39
2022-09-28T15:23:00.338Z,40.92
2022-09-28T15:24:00.310Z,41.95
2022-09-28T15:25:02.697Z,41.66
2022-09-28T15:26:00.276Z,42.37
2022-09-28T15:27:00.271Z,42.69
2022-09-28T15:28:00.267Z,44.24
2022-09-28T15:29:00.270Z,43.95
2022-09-28T15:30:00.234Z,44.68
2022-09-28T15:31:00.323Z,44.81
2022-09-28T15:32:00.257Z,45.92
2022-09-28T15:33:00.206Z,46.45
2022-09-28T15:34:00.215Z,46.55
2022-09-28T15:35:00.200Z,46.67
2022-09-28T15:36:00.205Z,46.57
2022-09-28T15:37:00.179Z,47.81
2022-09-28T15:38:00.145Z,47.71
2022-09-28T15:39:00.136Z,48.52
2022-09-28T15:40:00.142Z,49.56
2022-09-28T15:41:00.178Z,48.95
2022-09-28T15:42:00.117Z,50.07
2022-09-28T15:43:00.102Z,49.36
2022-09-28T15:44:00.093Z,50.07
2022-09-28T15:45:00.076Z,50.37
2022-09-28T15:46:00.126Z,48.93
2022-09-28T15:47:00.053Z,48.63
2022-09-28T15:48:00.053Z,48.95
2022-09-28T15:49:00.033Z,50.37
2022-09-28T15:50:00.029Z,50.58
2022-09-28T15:51:00.021Z,50.68
2022-09-28T15:52:00.032Z,49.97
2022-09-28T15:52:59.985Z,50.58
2022-09-28T15:53:59.972Z,49.89
2022-09-28T15:54:59.998Z,51.21
2022-09-28T15:55:59.951Z,51.21
2022-09-28T15:56:59.992Z,50.81
2022-09-28T15:57:59.994Z,50.40
2022-09-28T15:58:59.920Z,50.60
2022-09-28T15:59:59.918Z,51.11
2022-09-28T16:00:59.909Z,51.01
2022-09-28T16:01:59.919Z,51.72
2022-09-28T16:02:59.927Z,53.04
2022-09-28T16:03:59.866Z,52.84
2022-09-28T16:04:59.871Z,51.42
2022-09-28T16:05:59.856Z,51.82
2022-09-28T16:06:59.848Z,52.25
2022-09-28T16:07:59.828Z,52.96
2022-09-28T16:08:59.809Z,53.67
2022-09-28T16:09:59.796Z,53.27
2022-09-28T16:10:59.787Z,53.78
2022-09-28T16:11:59.779Z,52.45
2022-09-28T16:12:59.790Z,52.68
2022-09-28T16:13:59.753Z,52.28
2022-09-28T16:14:59.747Z,53.39
2022-09-28T16:16:00.046Z,54.11
2022-09-28T16:17:00.725Z,53.52
2022-09-28T16:17:59.709Z,54.03
2022-09-28T16:18:59.706Z,54.74
2022-09-28T16:19:59.701Z,54.87
2022-09-28T16:20:59.715Z,55.28
2022-09-28T16:21:59.672Z,55.48
2022-09-28T16:22:59.663Z,56.20
2022-09-28T16:23:59.668Z,55.28
2022-09-28T16:24:59.629Z,56.12
2022-09-28T16:25:59.771Z,56.52
2022-09-28T16:26:59.679Z,57.24
2022-09-28T16:27:59.617Z,57.04
2022-09-28T16:28:59.605Z,57.98
2022-09-28T16:29:59.602Z,58.18
2022-09-28T16:30:59.644Z,56.85
2022-09-28T16:31:59.588Z,57.26
2022-09-28T16:32:58.569Z,57.80
2022-09-28T16:33:59.569Z,58.31
2022-09-28T16:34:59.581Z,58.62
2022-09-28T16:35:59.539Z,58.72
2022-09-28T16:36:59.528Z,59.74
2022-09-28T16:37:59.527Z,59.64
2022-09-28T16:38:59.504Z,58.75
2022-09-28T16:39:59.516Z,59.56
2022-09-28T16:40:59.540Z,59.66
2022-09-28T16:41:59.466Z,60.07
2022-09-28T16:42:59.491Z,60.07
2022-09-28T16:43:59.463Z,59.77
2022-09-28T16:44:59.541Z,60.17
2022-09-28T16:45:59.548Z,59.77
2022-09-28T16:46:59.503Z,60.38
2022-09-28T16:47:59.455Z,60.17
2022-09-28T16:48:59.417Z,60.38
2022-09-28T16:49:59.405Z,60.61
2022-09-28T16:50:59.395Z,60.30
2022-09-28T16:51:59.369Z,61.22
2022-09-28T16:53:00.217Z,61.22
2022-09-28T16:53:59.336Z,61.53
2022-09-28T16:54:59.337Z,61.94
2022-09-28T16:55:59.367Z,61.43
2022-09-28T16:56:59.365Z,62.04
2022-09-28T16:57:59.329Z,61.22
2022-09-28T16:58:59.301Z,61.53
2022-09-28T16:59:59.323Z,62.14
2022-09-28T17:00:59.276Z,62.55
2022-09-28T17:01:59.457Z,62.04
2022-09-28T17:02:59.376Z,62.55
2022-09-28T17:03:59.288Z,63.09
2022-09-28T17:04:59.236Z,63.19
2022-09-28T17:05:59.299Z,62.99
2022-09-28T17:06:59.309Z,63.49
2022-09-28T17:07:59.256Z,63.40
2022-09-28T17:08:59.218Z,63.49
2022-09-28T17:09:59.391Z,63.49
2022-09-28T17:11:18.163Z,63.09
2022-09-28T17:11:59.290Z,63.60
2022-09-28T17:12:59.148Z,63.90
2022-09-28T17:13:59.205Z,63.70
2022-09-28T17:14:59.093Z,64.22
2022-09-28T17:15:59.099Z,64.11
2022-09-28T17:17:08.209Z,63.60
2022-09-28T17:17:59.066Z,64.22
2022-09-28T17:18:59.062Z,64.11
2022-09-28T17:19:59.128Z,64.31
2022-09-28T17:20:59.034Z,65.13
2022-09-28T17:21:59.013Z,64.93
2022-09-28T17:22:59.006Z,64.34
2022-09-28T17:23:59.030Z,65.67
2022-09-28T17:24:59.021Z,68.23
2022-09-28T17:25:59.007Z,69.45
2022-09-28T17:26:58.978Z,70.37
2022-09-28T17:27:58.949Z,71.50
2022-09-28T17:28:58.940Z,72.04
2022-09-28T17:29:58.954Z,72.86
2022-09-28T17:30:58.998Z,73.27
2022-09-28T17:31:58.907Z,73.36
2022-09-28T17:32:58.956Z,73.77
2022-09-28T17:33:58.953Z,73.57
2022-09-28T17:35:22.635Z,74.29
2022-09-28T17:35:58.953Z,74.59
2022-09-28T17:36:58.939Z,74.43
2022-09-28T17:37:58.942Z,74.22
2022-09-28T17:38:58.913Z,74.32
2022-09-28T17:39:58.953Z,74.32
2022-09-28T17:40:58.926Z,74.56
2022-09-28T17:41:58.875Z,74.97
2022-09-28T17:42:58.846Z,74.97
2022-09-28T17:43:58.843Z,75.27
2022-09-28T17:44:58.822Z,75.38
2022-09-28T17:45:58.857Z,74.97
2022-09-28T17:46:58.807Z,75.82
2022-09-28T17:47:58.784Z,76.43
2022-09-28T17:48:58.774Z,76.95
2022-09-28T17:49:58.928Z,77.05
2022-09-28T17:50:58.770Z,77.56
2022-09-28T17:51:58.762Z,77.70
2022-09-28T17:52:58.736Z,78.01
2022-09-28T17:53:58.717Z,78.21
2022-09-28T17:54:58.710Z,78.01
2022-09-28T17:55:58.719Z,77.29
2022-09-28T17:56:58.789Z,77.70
2022-09-28T17:57:58.808Z,77.80
2022-09-28T17:58:58.735Z,77.39
2022-09-28T17:59:58.791Z,77.91
2022-09-28T18:00:58.748Z,77.70
2022-09-28T18:02:02.127Z,78.01
2022-09-28T18:02:58.733Z,78.11
2022-09-28T18:03:58.682Z,78.25
2022-09-28T18:04:59.012Z,78.45
2022-09-28T18:05:58.654Z,78.76
2022-09-28T18:06:58.681Z,78.97
2022-09-28T18:07:58.638Z,79.27
2022-09-28T18:08:58.598Z,79.17
2022-09-28T18:09:58.680Z,79.48
2022-09-28T18:10:58.562Z,79.68
2022-09-28T18:11:58.582Z,79.58
2022-09-28T18:12:58.570Z,79.38
2022-09-28T18:13:58.568Z,79.17
2022-09-28T18:14:58.500Z,79.38
2022-09-28T18:15:58.583Z,80.09
2022-09-28T18:16:58.490Z,79.99
2022-09-28T18:17:58.471Z,79.99
2022-09-28T18:18:58.477Z,80.09
2022-09-28T18:19:58.499Z,80.33
2022-09-28T18:20:58.447Z,80.64
2022-09-28T18:21:58.522Z,80.85
2022-09-28T18:22:58.422Z,80.74
2022-09-28T18:23:58.448Z,80.23
2022-09-28T18:24:58.458Z,80.23